createdAt,value
2023-05-07T00:00:20.163Z,2.30
2023-05-07T00:02:47.624Z,2.80
2023-05-07T00:05:15.648Z,2.17
2023-05-07T00:07:42.643Z,2.43
2023-05-07T00:10:11.261Z,2.47
2023-05-07T00:12:38.128Z,2.47
2023-05-07T00:15:05.897Z,2.37
2023-05-07T00:17:33.622Z,2.07
2023-05-07T00:20:00.668Z,2.37
2023-05-07T00:22:27.530Z,2.87
2023-05-07T00:24:54.242Z,3.10
2023-05-07T00:27:20.882Z,2.47
2023-05-07T00:29:47.563Z,2.37
2023-05-07T00:32:14.293Z,2.60
2023-05-07T00:34:41.333Z,2.30
2023-05-07T00:37:10.939Z,2.87
2023-05-07T00:39:37.569Z,2.70
2023-05-07T00:42:05.432Z,2.67
2023-05-07T00:44:32.043Z,3.30
2023-05-07T00:46:58.976Z,2.70
2023-05-07T00:49:39.699Z,2.50
2023-05-07T00:52:08.846Z,2.50
2023-05-07T00:54:36.615Z,2.63
2023-05-07T00:57:04.747Z,2.40
2023-05-07T00:59:33.409Z,2.70
2023-05-07T01:02:00.427Z,2.83
2023-05-07T01:04:27.633Z,3.03
2023-05-07T01:06:57.404Z,3.03
2023-05-07T01:09:26.122Z,2.47
2023-05-07T01:11:54.311Z,2.70
2023-05-07T01:14:21.479Z,2.80
2023-05-07T01:16:49.378Z,2.23
2023-05-07T01:19:19.353Z,2.73
2023-05-07T01:21:49.893Z,3.17
2023-05-07T01:24:19.517Z,2.43
2023-05-07T01:26:46.244Z,2.73
2023-05-07T01:29:15.443Z,2.30
2023-05-07T01:31:44.153Z,2.40
2023-05-07T01:34:13.386Z,2.87
2023-05-07T01:36:41.797Z,2.03
2023-05-07T01:39:10.506Z,2.57
2023-05-07T01:41:37.714Z,2.30
2023-05-07T01:44:05.621Z,2.30
2023-05-07T01:46:33.610Z,2.60
2023-05-07T01:49:00.508Z,2.50
2023-05-07T01:51:27.948Z,2.20
2023-05-07T01:53:56.458Z,2.03
2023-05-07T01:56:23.496Z,2.43
2023-05-07T01:58:52.026Z,2.10
2023-05-07T02:01:19.238Z,2.13
2023-05-07T02:03:46.325Z,2.40
2023-05-07T02:06:21.115Z,2.50
2023-05-07T02:08:48.333Z,1.90
2023-05-07T02:11:16.006Z,2.10
2023-05-07T02:13:42.837Z,2.20
2023-05-07T02:16:09.572Z,2.30
2023-05-07T02:18:36.858Z,2.30
2023-05-07T02:21:03.686Z,2.60
2023-05-07T02:23:30.578Z,2.60
2023-05-07T02:25:57.625Z,2.50
2023-05-07T02:28:24.628Z,2.20
2023-05-07T02:31:01.845Z,2.20
2023-05-07T02:33:29.670Z,2.23
2023-05-07T02:35:56.721Z,2.23
2023-05-07T02:38:24.262Z,1.90
2023-05-07T02:40:50.874Z,2.80
2023-05-07T02:43:17.609Z,2.17
2023-05-07T02:45:47.341Z,2.07
2023-05-07T02:48:15.177Z,1.93
2023-05-07T02:50:41.944Z,2.13
2023-05-07T02:53:08.681Z,2.43
2023-05-07T02:55:35.318Z,2.10
2023-05-07T02:58:02.098Z,2.03
2023-05-07T03:00:32.026Z,2.17
2023-05-07T03:03:09.827Z,2.73
2023-05-07T03:05:36.707Z,1.80
2023-05-07T03:08:04.817Z,2.47
2023-05-07T03:10:31.681Z,2.37
2023-05-07T03:12:58.364Z,2.03
2023-05-07T03:15:25.115Z,1.80
2023-05-07T03:17:52.453Z,1.93
2023-05-07T03:20:20.144Z,2.50
2023-05-07T03:22:46.804Z,1.80
2023-05-07T03:25:14.992Z,2.40
2023-05-07T03:27:42.839Z,2.20
2023-05-07T03:30:10.840Z,2.43
2023-05-07T03:32:37.753Z,2.30
2023-05-07T03:35:08.526Z,2.37
2023-05-07T03:37:35.391Z,2.80
2023-05-07T03:40:03.082Z,2.20
2023-05-07T03:42:32.519Z,2.10
2023-05-07T03:44:59.798Z,2.30
2023-05-07T03:47:26.974Z,2.10
2023-05-07T03:49:54.886Z,2.60
2023-05-07T03:52:26.793Z,2.60
2023-05-07T03:54:55.718Z,2.20
2023-05-07T03:57:22.648Z,2.33
2023-05-07T03:59:49.471Z,2.30
2023-05-07T04:02:16.424Z,2.30
2023-05-07T04:04:43.259Z,2.23
2023-05-07T04:07:10.873Z,2.50
2023-05-07T04:09:41.444Z,2.30
2023-05-07T04:12:08.118Z,2.33
2023-05-07T04:14:35.491Z,2.30
2023-05-07T04:17:03.736Z,2.33
2023-05-07T04:19:31.115Z,2.00
2023-05-07T04:21:57.832Z,2.40
2023-05-07T04:24:24.704Z,2.10
2023-05-07T04:26:52.141Z,2.70
2023-05-07T04:29:20.739Z,2.47
2023-05-07T04:31:47.500Z,2.40
2023-05-07T04:34:15.143Z,2.63
2023-05-07T04:36:43.440Z,2.00
2023-05-07T04:39:12.078Z,2.43
2023-05-07T04:41:41.210Z,2.57
2023-05-07T04:44:10.206Z,2.60
2023-05-07T04:46:36.982Z,2.30
2023-05-07T04:49:04.216Z,2.67
2023-05-07T04:51:31.297Z,2.07
2023-05-07T04:53:58.141Z,2.53
2023-05-07T04:56:28.106Z,2.20
2023-05-07T04:58:54.832Z,2.60
2023-05-07T05:01:22.374Z,2.00
2023-05-07T05:03:49.296Z,2.10
2023-05-07T05:06:16.217Z,1.80
2023-05-07T05:08:42.913Z,2.07
2023-05-07T05:11:10.804Z,2.30
2023-05-07T05:13:37.497Z,2.27
2023-05-07T05:16:11.659Z,2.03
2023-05-07T05:18:39.601Z,1.90
2023-05-07T05:21:06.288Z,2.07
2023-05-07T05:23:33.856Z,1.80
2023-05-07T05:26:01.177Z,3.40
2023-05-07T05:28:31.553Z,2.20
2023-05-07T05:30:58.249Z,1.97
2023-05-07T05:33:27.382Z,2.10
2023-05-07T05:35:55.714Z,2.20
2023-05-07T05:38:22.557Z,2.10
2023-05-07T05:40:50.117Z,2.20
2023-05-07T05:43:16.820Z,2.30
2023-05-07T05:45:43.567Z,2.30
2023-05-07T05:48:10.766Z,1.90
2023-05-07T05:50:38.444Z,1.80
2023-05-07T05:53:06.273Z,1.90
2023-05-07T05:55:33.740Z,1.77
2023-05-07T05:58:01.775Z,2.20
2023-05-07T06:00:30.602Z,1.77
2023-05-07T06:03:02.593Z,1.83
2023-05-07T06:05:29.437Z,2.03
2023-05-07T06:07:57.361Z,1.60
2023-05-07T06:10:25.179Z,1.93
2023-05-07T06:12:51.927Z,2.50
2023-05-07T06:15:18.734Z,2.10
2023-05-07T06:17:46.234Z,2.47
2023-05-07T06:20:13.142Z,2.10
2023-05-07T06:22:40.929Z,2.30
2023-05-07T06:25:09.704Z,2.50
2023-05-07T06:27:36.718Z,2.03
2023-05-07T06:30:03.639Z,2.37
2023-05-07T06:32:30.478Z,1.97
2023-05-07T06:34:57.185Z,2.10
2023-05-07T06:37:23.920Z,2.10
2023-05-07T06:39:54.906Z,1.57
2023-05-07T06:42:22.690Z,1.90
2023-05-07T06:44:50.504Z,1.80
2023-05-07T06:47:18.674Z,2.20
2023-05-07T06:49:50.208Z,2.10
2023-05-07T06:52:19.186Z,2.50
2023-05-07T06:54:47.066Z,1.73
2023-05-07T06:57:16.188Z,1.90
2023-05-07T06:59:42.959Z,1.63
2023-05-07T07:02:10.682Z,2.07
2023-05-07T07:04:37.482Z,1.60
2023-05-07T07:07:08.886Z,2.10
2023-05-07T07:09:36.250Z,1.90
2023-05-07T07:12:05.101Z,2.00
2023-05-07T07:14:31.980Z,1.67
2023-05-07T07:16:58.916Z,1.97
2023-05-07T07:19:27.255Z,2.03
2023-05-07T07:21:55.663Z,2.20
2023-05-07T07:24:22.656Z,2.13
2023-05-07T07:26:53.834Z,1.80
2023-05-07T07:29:21.707Z,1.73
2023-05-07T07:31:51.047Z,2.33
2023-05-07T07:34:19.073Z,2.77
2023-05-07T07:36:46.999Z,1.63
2023-05-07T07:39:17.140Z,2.00
2023-05-07T07:41:45.160Z,2.00
2023-05-07T07:44:15.938Z,1.83
2023-05-07T07:46:46.244Z,1.97
2023-05-07T07:49:13.063Z,1.90
2023-05-07T07:51:39.973Z,1.87
2023-05-07T07:54:06.957Z,1.47
2023-05-07T07:56:35.140Z,1.60
2023-05-07T07:59:03.684Z,1.87
2023-05-07T08:01:32.225Z,2.00
2023-05-07T08:04:00.070Z,1.53
2023-05-07T08:06:28.475Z,1.83
2023-05-07T08:08:56.145Z,1.70
2023-05-07T08:11:23.456Z,1.30
2023-05-07T08:13:51.037Z,1.77
2023-05-07T08:16:17.890Z,1.63
2023-05-07T08:18:44.832Z,1.30
2023-05-07T08:21:12.303Z,1.63
2023-05-07T08:23:39.645Z,1.70
2023-05-07T08:26:09.010Z,1.37
2023-05-07T08:28:37.052Z,1.60
2023-05-07T08:31:03.836Z,1.70
2023-05-07T08:33:35.128Z,1.57
2023-05-07T08:36:01.834Z,1.90
2023-05-07T08:38:28.853Z,1.80
2023-05-07T08:40:55.789Z,1.57
2023-05-07T08:43:25.001Z,1.70
2023-05-07T08:45:55.854Z,1.87
2023-05-07T08:48:27.100Z,1.57
2023-05-07T08:51:05.079Z,1.37
2023-05-07T08:53:32.427Z,1.97
2023-05-07T08:56:00.323Z,2.00
2023-05-07T08:58:29.059Z,2.03
2023-05-07T09:00:56.676Z,1.80
2023-05-07T09:03:24.527Z,1.23
2023-05-07T09:05:53.617Z,1.80
2023-05-07T09:08:28.601Z,1.60
2023-05-07T09:10:58.261Z,2.07
2023-05-07T09:13:25.099Z,1.80
2023-05-07T09:15:51.995Z,1.67
2023-05-07T09:18:19.655Z,1.70
2023-05-07T09:20:48.584Z,1.53
2023-05-07T09:23:17.764Z,1.53
2023-05-07T09:25:44.804Z,1.73
2023-05-07T09:28:24.475Z,1.80
2023-05-07T09:30:51.225Z,1.50
2023-05-07T09:33:18.071Z,1.70
2023-05-07T09:35:52.564Z,1.53
2023-05-07T09:38:22.218Z,1.47
2023-05-07T09:41:06.492Z,1.20
2023-05-07T09:43:38.951Z,1.30
2023-05-07T09:46:13.077Z,1.57
2023-05-07T09:48:44.025Z,1.67
2023-05-07T09:51:27.853Z,1.70
2023-05-07T09:53:56.940Z,1.57
2023-05-07T09:56:26.282Z,1.67
2023-05-07T09:58:55.730Z,1.47
2023-05-07T10:01:23.524Z,1.87
2023-05-07T10:03:52.236Z,1.50
2023-05-07T10:06:20.901Z,1.67
2023-05-07T10:08:48.441Z,1.70
2023-05-07T10:11:16.580Z,1.30
2023-05-07T10:13:44.305Z,1.70
2023-05-07T10:16:11.665Z,1.27
2023-05-07T10:18:46.561Z,1.87
2023-05-07T10:21:20.549Z,1.80
2023-05-07T10:24:01.355Z,1.90
2023-05-07T10:26:32.155Z,1.67
2023-05-07T10:29:11.866Z,1.60
2023-05-07T10:32:15.961Z,1.70
2023-05-07T10:34:46.430Z,1.77
2023-05-07T10:37:14.017Z,1.77
2023-05-07T10:39:42.072Z,1.63
2023-05-07T10:42:14.526Z,1.53
2023-05-07T10:44:46.662Z,1.53
2023-05-07T10:47:21.255Z,2.00
2023-05-07T10:49:51.586Z,2.00
2023-05-07T10:52:27.511Z,1.80
2023-05-07T10:55:22.439Z,1.37
2023-05-07T10:57:57.632Z,1.80
2023-05-07T11:00:38.597Z,1.83
2023-05-07T11:03:08.782Z,1.73
2023-05-07T11:06:11.907Z,1.57
2023-05-07T11:09:11.147Z,1.90
2023-05-07T11:11:53.552Z,1.60
2023-05-07T11:14:44.960Z,1.60
2023-05-07T11:17:15.878Z,1.43
2023-05-07T11:19:52.961Z,1.63
2023-05-07T11:22:40.717Z,1.50
2023-05-07T11:25:26.683Z,1.90
2023-05-07T11:28:11.957Z,1.50
2023-05-07T11:30:44.837Z,1.63
2023-05-07T11:33:19.431Z,1.53
2023-05-07T11:35:48.153Z,1.57
2023-05-07T11:38:19.254Z,1.50
2023-05-07T11:41:01.611Z,1.87
2023-05-07T11:43:28.542Z,1.70
2023-05-07T11:45:55.287Z,1.80
2023-05-07T11:48:23.344Z,1.53
2023-05-07T11:50:54.660Z,1.70
2023-05-07T11:53:25.243Z,2.27
2023-05-07T11:55:58.388Z,1.90
2023-05-07T11:58:29.150Z,2.00
2023-05-07T12:00:55.931Z,1.90
2023-05-07T12:03:22.734Z,1.83
2023-05-07T12:05:49.953Z,1.80
2023-05-07T12:08:21.683Z,1.90
2023-05-07T12:10:50.292Z,1.73
2023-05-07T12:13:24.257Z,1.77
2023-05-07T12:15:55.888Z,2.10
2023-05-07T12:18:23.756Z,1.93
2023-05-07T12:20:51.741Z,1.90
2023-05-07T12:23:19.148Z,1.87
2023-05-07T12:25:49.157Z,1.57
2023-05-07T12:28:17.476Z,1.70
2023-05-07T12:30:49.069Z,1.60
2023-05-07T12:33:24.053Z,1.97
2023-05-07T12:35:51.197Z,1.83
2023-05-07T12:38:19.084Z,1.90
2023-05-07T12:40:48.349Z,1.30
2023-05-07T12:43:30.730Z,2.00
2023-05-07T12:46:00.446Z,1.97
2023-05-07T12:48:30.265Z,2.03
2023-05-07T12:50:58.620Z,1.50
2023-05-07T12:53:27.178Z,1.67
2023-05-07T12:55:56.188Z,1.83
2023-05-07T12:58:34.930Z,1.60
2023-05-07T13:01:06.116Z,1.80
2023-05-07T13:03:35.563Z,1.77
2023-05-07T13:06:04.945Z,1.80
2023-05-07T13:08:44.249Z,1.60
2023-05-07T13:11:11.732Z,2.07
2023-05-07T13:13:41.612Z,1.70
2023-05-07T13:16:10.452Z,1.83
2023-05-07T13:18:38.850Z,1.93
2023-05-07T13:21:05.737Z,2.00
2023-05-07T13:23:32.500Z,1.70
2023-05-07T13:26:00.140Z,1.50
2023-05-07T13:28:27.920Z,1.50
2023-05-07T13:30:55.512Z,1.50
2023-05-07T13:33:22.491Z,2.30
2023-05-07T13:35:49.215Z,1.80
2023-05-07T13:38:16.902Z,1.70
2023-05-07T13:40:43.660Z,1.90
2023-05-07T13:43:11.410Z,1.70
2023-05-07T13:45:38.252Z,2.27
2023-05-07T13:48:05.237Z,1.80
2023-05-07T13:50:32.083Z,1.50
2023-05-07T13:52:58.782Z,1.80
2023-05-07T13:55:25.920Z,1.97
2023-05-07T13:58:00.159Z,1.70
2023-05-07T14:00:27.965Z,1.93
2023-05-07T14:02:55.904Z,1.90
2023-05-07T14:05:27.645Z,1.83
2023-05-07T14:07:55.007Z,2.00
2023-05-07T14:10:21.756Z,2.00
2023-05-07T14:12:48.626Z,2.33
2023-05-07T14:15:16.949Z,1.80
2023-05-07T14:17:44.391Z,2.10
2023-05-07T14:20:11.996Z,2.27
2023-05-07T14:22:38.786Z,1.63
2023-05-07T14:25:07.378Z,1.77
2023-05-07T14:27:34.371Z,1.90
2023-05-07T14:30:01.171Z,1.73
2023-05-07T14:32:28.000Z,1.80
2023-05-07T14:34:54.694Z,1.90
2023-05-07T14:37:21.420Z,1.90
2023-05-07T14:39:50.819Z,2.03
2023-05-07T14:42:18.158Z,2.40
2023-05-07T14:44:46.409Z,2.70
2023-05-07T14:47:13.822Z,2.20
2023-05-07T14:49:42.003Z,2.77
2023-05-07T14:52:10.826Z,2.33
2023-05-07T14:54:38.883Z,2.93
2023-05-07T14:57:06.911Z,2.17
2023-05-07T14:59:33.788Z,2.63
2023-05-07T15:02:01.245Z,2.40
2023-05-07T15:04:29.299Z,2.53
2023-05-07T15:06:56.999Z,2.60
2023-05-07T15:09:23.719Z,4.97
2023-05-07T15:11:50.451Z,6.33
2023-05-07T15:14:17.174Z,3.83
2023-05-07T15:16:43.913Z,4.60
2023-05-07T15:19:10.737Z,4.20
2023-05-07T15:21:37.692Z,3.63
2023-05-07T15:24:04.800Z,2.93
2023-05-07T15:26:31.454Z,2.60
2023-05-07T15:28:58.230Z,3.60
2023-05-07T15:31:27.756Z,4.30
2023-05-07T15:33:55.335Z,3.73
2023-05-07T15:36:22.064Z,3.40
2023-05-07T15:38:48.788Z,3.97
2023-05-07T15:41:15.467Z,4.30
2023-05-07T15:43:51.505Z,4.47
2023-05-07T15:46:19.800Z,4.43
2023-05-07T15:48:47.217Z,4.30
2023-05-07T15:51:14.137Z,5.40
2023-05-07T15:53:41.149Z,4.83
2023-05-07T15:56:08.300Z,5.37
2023-05-07T15:58:36.237Z,5.73
2023-05-07T16:01:04.151Z,4.70
2023-05-07T16:03:31.500Z,5.47
2023-05-07T16:06:00.661Z,4.70
2023-05-07T16:08:27.665Z,4.77
2023-05-07T16:10:54.806Z,4.83
2023-05-07T16:13:21.699Z,5.40
2023-05-07T16:15:48.624Z,4.87
2023-05-07T16:18:18.307Z,4.20
2023-05-07T16:20:46.659Z,4.30
2023-05-07T16:23:13.447Z,4.70
2023-05-07T16:25:40.263Z,4.43
2023-05-07T16:28:07.898Z,4.57
2023-05-07T16:30:34.801Z,4.63
2023-05-07T16:33:01.573Z,4.60
2023-05-07T16:35:28.484Z,4.97
2023-05-07T16:37:55.406Z,4.97
2023-05-07T16:40:22.318Z,4.70
2023-05-07T16:42:49.020Z,5.23
2023-05-07T16:45:16.278Z,5.03
2023-05-07T16:47:43.190Z,4.77
2023-05-07T16:50:10.178Z,4.60
2023-05-07T16:52:36.952Z,4.50
2023-05-07T16:55:03.862Z,4.70
2023-05-07T16:57:30.885Z,4.90
2023-05-07T16:59:58.940Z,4.30
2023-05-07T17:02:25.807Z,4.50
2023-05-07T17:04:52.558Z,4.20
2023-05-07T17:07:19.309Z,4.00
2023-05-07T17:09:45.970Z,4.00
2023-05-07T17:12:12.636Z,4.37
2023-05-07T17:14:39.421Z,5.00
2023-05-07T17:17:07.278Z,4.00
2023-05-07T17:19:37.980Z,4.40
2023-05-07T17:22:06.477Z,4.80
2023-05-07T17:24:33.227Z,4.67
2023-05-07T17:26:59.879Z,4.90
2023-05-07T17:29:26.604Z,4.50
2023-05-07T17:31:53.278Z,4.87
2023-05-07T17:34:19.985Z,4.73
2023-05-07T17:36:46.653Z,5.30
2023-05-07T17:39:13.342Z,5.47
2023-05-07T17:41:40.005Z,5.00
2023-05-07T17:44:06.732Z,4.60
2023-05-07T17:46:33.556Z,5.07
2023-05-07T17:49:00.410Z,5.33
2023-05-07T17:51:33.633Z,16.67
2023-05-07T17:54:05.899Z,11.03
2023-05-07T17:56:32.784Z,5.60
2023-05-07T17:58:59.700Z,4.67
2023-05-07T18:01:26.657Z,5.73
2023-05-07T18:03:53.576Z,6.13
2023-05-07T18:06:21.934Z,6.07
2023-05-07T18:08:48.956Z,5.40
2023-05-07T18:11:15.794Z,5.90
2023-05-07T18:13:42.536Z,5.63
2023-05-07T18:16:10.087Z,5.77
2023-05-07T18:18:36.945Z,5.93
2023-05-07T18:21:03.742Z,5.90
2023-05-07T18:23:30.519Z,5.30
2023-05-07T18:25:57.216Z,5.70
2023-05-07T18:28:23.869Z,7.07
2023-05-07T18:30:50.715Z,6.13
2023-05-07T18:33:17.536Z,5.80
2023-05-07T18:35:44.321Z,6.27
2023-05-07T18:38:11.132Z,6.00
2023-05-07T18:40:43.672Z,6.50
2023-05-07T18:43:11.113Z,6.87
2023-05-07T18:45:38.202Z,6.43
2023-05-07T18:48:06.643Z,5.93
2023-05-07T18:50:33.815Z,6.00
2023-05-07T18:53:00.572Z,6.70
2023-05-07T18:55:27.584Z,6.73
2023-05-07T18:57:54.242Z,6.57
2023-05-07T19:00:21.012Z,7.90
2023-05-07T19:02:47.731Z,7.23
2023-05-07T19:05:14.428Z,7.37
2023-05-07T19:07:41.190Z,7.50
2023-05-07T19:10:08.528Z,6.70
2023-05-07T19:12:35.218Z,7.50
2023-05-07T19:15:02.014Z,7.87
2023-05-07T19:17:28.811Z,7.23
2023-05-07T19:19:55.500Z,7.47
2023-05-07T19:22:22.255Z,6.97
2023-05-07T19:24:49.061Z,8.37
2023-05-07T19:27:15.823Z,6.67
2023-05-07T19:29:43.446Z,8.20
2023-05-07T19:32:10.303Z,8.10
2023-05-07T19:34:36.998Z,7.57
2023-05-07T19:37:05.572Z,8.30
2023-05-07T19:39:32.229Z,8.07
2023-05-07T19:41:58.957Z,7.70
2023-05-07T19:44:25.822Z,5.83
2023-05-07T19:46:52.681Z,6.93
2023-05-07T19:49:19.420Z,8.20
2023-05-07T19:51:46.098Z,8.20
2023-05-07T19:54:12.972Z,8.87
2023-05-07T19:56:41.636Z,8.70
2023-05-07T19:59:08.679Z,6.90
2023-05-07T20:01:36.109Z,8.10
2023-05-07T20:04:03.126Z,8.00
2023-05-07T20:06:29.892Z,8.10
2023-05-07T20:08:56.822Z,6.60
2023-05-07T20:11:23.574Z,7.37
2023-05-07T20:13:50.409Z,6.43
2023-05-07T20:16:17.130Z,7.37
2023-05-07T20:18:43.902Z,7.60
2023-05-07T20:21:11.738Z,6.67
2023-05-07T20:23:38.449Z,6.53
2023-05-07T20:26:05.126Z,7.20
2023-05-07T20:28:31.990Z,7.43
2023-05-07T20:30:58.658Z,7.40
2023-05-07T20:33:26.772Z,7.63
2023-05-07T20:35:53.823Z,8.10
2023-05-07T20:38:20.802Z,8.17
2023-05-07T20:40:47.518Z,8.43
2023-05-07T20:43:14.440Z,7.70
2023-05-07T20:45:41.131Z,7.80
2023-05-07T20:48:07.867Z,8.80
2023-05-07T20:50:34.543Z,8.17
2023-05-07T20:53:01.889Z,9.10
2023-05-07T20:55:28.600Z,8.40
2023-05-07T20:57:55.340Z,8.60
2023-05-07T21:00:22.139Z,8.63
2023-05-07T21:02:48.856Z,8.60
2023-05-07T21:05:15.613Z,8.23
2023-05-07T21:07:42.293Z,8.70
2023-05-07T21:10:09.500Z,9.03
2023-05-07T21:12:36.461Z,9.00
2023-05-07T21:15:03.716Z,8.60
2023-05-07T21:17:32.925Z,8.90
2023-05-07T21:19:59.613Z,9.57
2023-05-07T21:22:26.340Z,11.67
2023-05-07T21:24:53.005Z,11.10
2023-05-07T21:27:19.767Z,9.83
2023-05-07T21:29:46.431Z,11.73
2023-05-07T21:32:13.157Z,12.77
2023-05-07T21:34:39.836Z,11.37
2023-05-07T21:37:06.583Z,11.90
2023-05-07T21:39:33.278Z,11.33
2023-05-07T21:41:59.956Z,12.73
2023-05-07T21:44:29.664Z,12.07
2023-05-07T21:46:56.320Z,12.80
2023-05-07T21:49:23.258Z,13.27
2023-05-07T21:51:50.069Z,13.23
2023-05-07T21:54:16.755Z,13.10
2023-05-07T21:56:43.458Z,12.87
2023-05-07T21:59:10.089Z,12.57
2023-05-07T22:01:36.783Z,12.67
2023-05-07T22:04:03.763Z,12.20
2023-05-07T22:06:31.242Z,12.77
2023-05-07T22:08:57.903Z,13.67
2023-05-07T22:11:24.712Z,12.53
2023-05-07T22:13:51.456Z,13.30
2023-05-07T22:16:18.119Z,13.40
2023-05-07T22:18:44.919Z,12.10
2023-05-07T22:21:11.709Z,11.73
2023-05-07T22:23:38.428Z,12.57
2023-05-07T22:26:13.340Z,12.20
2023-05-07T22:28:40.777Z,11.20
2023-05-07T22:31:07.465Z,11.50
2023-05-07T22:33:34.981Z,10.77
2023-05-07T22:36:01.883Z,11.80
2023-05-07T22:38:28.674Z,10.90
2023-05-07T22:40:55.325Z,11.37
2023-05-07T22:43:21.990Z,10.67
2023-05-07T22:45:48.655Z,10.17
2023-05-07T22:48:15.359Z,10.30
2023-05-07T22:50:42.185Z,9.53
2023-05-07T22:53:08.866Z,10.17
2023-05-07T22:55:35.555Z,9.77
2023-05-07T22:58:02.222Z,9.37
2023-05-07T23:00:28.916Z,8.40
2023-05-07T23:02:55.641Z,8.37
2023-05-07T23:05:22.756Z,8.00
2023-05-07T23:07:49.454Z,8.90
2023-05-07T23:10:16.211Z,7.43
2023-05-07T23:12:43.783Z,8.07
2023-05-07T23:15:11.060Z,7.20
2023-05-07T23:17:37.834Z,7.47
2023-05-07T23:20:04.897Z,7.00
2023-05-07T23:22:31.578Z,6.80
2023-05-07T23:24:58.230Z,6.70
2023-05-07T23:27:24.913Z,7.83
2023-05-07T23:29:51.610Z,6.80
2023-05-07T23:32:18.263Z,7.50
2023-05-07T23:34:49.080Z,7.00
2023-05-07T23:37:15.719Z,6.87
2023-05-07T23:39:42.502Z,6.47
2023-05-07T23:42:10.047Z,7.97
2023-05-07T23:44:36.802Z,7.10
2023-05-07T23:47:03.474Z,7.33
2023-05-07T23:49:30.232Z,7.33
2023-05-07T23:51:56.880Z,6.03
2023-05-07T23:54:24.208Z,6.07
2023-05-07T23:56:50.873Z,6.30
2023-05-07T23:59:17.910Z,6.63
